sensor_id;sensor_type;location;lat;lon;timestamp;pressure;altitude;pressure_sealevel;temperature;humidity
77360;BME280;66426;51.454;7.266;2023-07-30T00:00:12;99533.16;;;16.50;nan
77360;BME280;66426;51.454;7.266;2023-07-30T00:01:12;99530.38;;;16.41;nan
77360;BME280;66426;51.454;7.266;2023-07-30T00:02:13;99528.13;;;16.46;nan
77360;BME280;66426;51.454;7.266;2023-07-30T00:03:14;99533.75;;;16.33;nan
77360;BME280;66426;51.454;7.266;2023-07-30T00:04:15;99539.28;;;16.31;nan
77360;BME280;66426;51.454;7.266;2023-07-30T00:05:16;99538.56;;;16.29;nan
77360;BME280;66426;51.454;7.266;2023-07-30T00:06:17;99531.13;;;16.31;nan
77360;BME280;66426;51.454;7.266;2023-07-30T00:07:18;99533.84;;;16.31;nan
77360;BME280;66426;51.454;7.266;2023-07-30T00:08:18;99531.03;;;16.33;nan
77360;BME280;66426;51.454;7.266;2023-07-30T00:09:21;99538.78;;;16.37;nan
77360;BME280;66426;51.454;7.266;2023-07-30T00:10:22;99526.56;;;16.32;nan
77360;BME280;66426;51.454;7.266;2023-07-30T00:11:23;99536.94;;;16.38;nan
77360;BME280;66426;51.454;7.266;2023-07-30T00:12:23;99532.72;;;16.34;nan
77360;BME280;66426;51.454;7.266;2023-07-30T00:13:24;99533.03;;;16.20;nan
77360;BME280;66426;51.454;7.266;2023-07-30T00:14:25;99530.72;;;16.15;nan
77360;BME280;66426;51.454;7.266;2023-07-30T00:15:26;99531.22;;;16.09;nan
77360;BME280;66426;51.454;7.266;2023-07-30T00:16:27;99534.41;;;16.14;nan
77360;BME280;66426;51.454;7.266;2023-07-30T00:17:28;99531.69;;;16.14;nan
77360;BME280;66426;51.454;7.266;2023-07-30T00:18:29;99533.16;;;16.18;nan
77360;BME280;66426;51.454;7.266;2023-07-30T00:19:30;99535.03;;;16.17;nan
77360;BME280;66426;51.454;7.266;2023-07-30T00:20:31;99540.31;;;16.19;nan
77360;BME280;66426;51.454;7.266;2023-07-30T00:21:31;99539.09;;;16.23;nan
77360;BME280;66426;51.454;7.266;2023-07-30T00:22:32;99536.22;;;16.25;nan
77360;BME280;66426;51.454;7.266;2023-07-30T00:23:33;99541.31;;;16.18;nan
77360;BME280;66426;51.454;7.266;2023-07-30T00:24:35;99535.28;;;16.14;nan
77360;BME280;66426;51.454;7.266;2023-07-30T00:25:36;99534.78;;;16.09;nan
77360;BME280;66426;51.454;7.266;2023-07-30T00:26:37;99532.94;;;16.10;nan
77360;BME280;66426;51.454;7.266;2023-07-30T00:27:39;99539.41;;;15.98;nan
77360;BME280;66426;51.454;7.266;2023-07-30T00:28:40;99530.63;;;15.94;nan
77360;BME280;66426;51.454;7.266;2023-07-30T00:29:41;99533.47;;;15.92;nan
77360;BME280;66426;51.454;7.266;2023-07-30T00:30:42;99535.59;;;15.89;nan
77360;BME280;66426;51.454;7.266;2023-07-30T00:31:42;99533.97;;;15.98;nan
77360;BME280;66426;51.454;7.266;2023-07-30T00:32:43;99537.31;;;15.90;nan
77360;BME280;66426;51.454;7.266;2023-07-30T00:33:44;99535.00;;;15.85;nan
77360;BME280;66426;51.454;7.266;2023-07-30T00:34:45;99533.25;;;15.84;nan
77360;BME280;66426;51.454;7.266;2023-07-30T00:35:46;99531.50;;;15.94;nan
77360;BME280;66426;51.454;7.266;2023-07-30T00:36:47;99529.47;;;15.76;nan
77360;BME280;66426;51.454;7.266;2023-07-30T00:37:48;99528.81;;;15.83;nan
77360;BME280;66426;51.454;7.266;2023-07-30T00:38:49;99534.16;;;15.73;nan
77360;BME280;66426;51.454;7.266;2023-07-30T00:39:51;99533.41;;;15.71;nan
77360;BME280;66426;51.454;7.266;2023-07-30T00:40:52;99537.72;;;15.74;nan
77360;BME280;66426;51.454;7.266;2023-07-30T00:41:53;99535.00;;;15.74;nan
77360;BME280;66426;51.454;7.266;2023-07-30T00:42:53;99531.31;;;15.75;nan
77360;BME280;66426;51.454;7.266;2023-07-30T00:43:54;99534.25;;;15.83;nan
77360;BME280;66426;51.454;7.266;2023-07-30T00:44:55;99532.50;;;15.82;nan
77360;BME280;66426;51.454;7.266;2023-07-30T00:45:56;99533.16;;;15.74;nan
77360;BME280;66426;51.454;7.266;2023-07-30T00:46:57;99531.06;;;15.78;nan
77360;BME280;66426;51.454;7.266;2023-07-30T00:47:58;99536.59;;;15.77;nan
77360;BME280;66426;51.454;7.266;2023-07-30T00:48:59;99537.47;;;15.66;nan
77360;BME280;66426;51.454;7.266;2023-07-30T00:50:00;99529.44;;;15.64;nan
77360;BME280;66426;51.454;7.266;2023-07-30T00:51:01;99540.19;;;15.77;nan
77360;BME280;66426;51.454;7.266;2023-07-30T00:52:03;99538.84;;;15.71;nan
77360;BME280;66426;51.454;7.266;2023-07-30T00:53:04;99534.75;;;15.77;nan
77360;BME280;66426;51.454;7.266;2023-07-30T00:54:06;99532.53;;;15.71;nan
77360;BME280;66426;51.454;7.266;2023-07-30T00:55:08;99534.63;;;15.56;nan
77360;BME280;66426;51.454;7.266;2023-07-30T00:56:09;99539.53;;;15.62;nan
77360;BME280;66426;51.454;7.266;2023-07-30T00:57:10;99537.94;;;15.60;nan
77360;BME280;66426;51.454;7.266;2023-07-30T00:58:12;99537.13;;;15.48;nan
77360;BME280;66426;51.454;7.266;2023-07-30T00:59:13;99540.81;;;15.36;nan
77360;BME280;66426;51.454;7.266;2023-07-30T01:00:14;99545.13;;;15.49;nan
77360;BME280;66426;51.454;7.266;2023-07-30T01:01:15;99538.84;;;15.60;nan
77360;BME280;66426;51.454;7.266;2023-07-30T01:02:16;99537.72;;;15.51;nan
77360;BME280;66426;51.454;7.266;2023-07-30T01:03:18;99540.31;;;15.53;nan
77360;BME280;66426;51.454;7.266;2023-07-30T01:04:19;99539.69;;;15.61;nan
77360;BME280;66426;51.454;7.266;2023-07-30T01:05:20;99536.13;;;15.60;nan
77360;BME280;66426;51.454;7.266;2023-07-30T01:06:21;99539.06;;;15.68;nan
77360;BME280;66426;51.454;7.266;2023-07-30T01:07:22;99542.03;;;15.77;nan
77360;BME280;66426;51.454;7.266;2023-07-30T01:08:23;99548.09;;;15.80;nan
77360;BME280;66426;51.454;7.266;2023-07-30T01:09:23;99547.22;;;15.80;nan
77360;BME280;66426;51.454;7.266;2023-07-30T01:10:26;99546.84;;;15.84;nan
77360;BME280;66426;51.454;7.266;2023-07-30T01:11:28;99538.09;;;15.81;nan
77360;BME280;66426;51.454;7.266;2023-07-30T01:12:30;99542.53;;;15.82;nan
77360;BME280;66426;51.454;7.266;2023-07-30T01:13:34;99550.28;;;15.64;nan
77360;BME280;66426;51.454;7.266;2023-07-30T01:14:36;99550.91;;;15.56;nan
77360;BME280;66426;51.454;7.266;2023-07-30T01:15:38;99550.81;;;15.46;nan
77360;BME280;66426;51.454;7.266;2023-07-30T01:16:40;99551.28;;;15.51;nan
77360;BME280;66426;51.454;7.266;2023-07-30T01:17:41;99555.50;;;15.56;nan
77360;BME280;66426;51.454;7.266;2023-07-30T01:18:42;99552.16;;;15.52;nan
77360;BME280;66426;51.454;7.266;2023-07-30T01:19:43;99559.28;;;15.64;nan
77360;BME280;66426;51.454;7.266;2023-07-30T01:20:44;99554.13;;;15.39;nan
77360;BME280;66426;51.454;7.266;2023-07-30T01:21:46;99547.34;;;15.44;nan
77360;BME280;66426;51.454;7.266;2023-07-30T01:22:47;99550.66;;;15.59;nan
77360;BME280;66426;51.454;7.266;2023-07-30T01:23:48;99553.50;;;15.69;nan
77360;BME280;66426;51.454;7.266;2023-07-30T01:24:49;99558.84;;;15.70;nan
77360;BME280;66426;51.454;7.266;2023-07-30T01:25:51;99558.81;;;15.82;nan
77360;BME280;66426;51.454;7.266;2023-07-30T01:26:59;99560.41;;;15.62;nan
77360;BME280;66426;51.454;7.266;2023-07-30T01:28:01;99554.00;;;15.63;nan
77360;BME280;66426;51.454;7.266;2023-07-30T01:29:07;99556.00;;;15.72;nan
77360;BME280;66426;51.454;7.266;2023-07-30T01:30:16;99557.69;;;15.62;nan
77360;BME280;66426;51.454;7.266;2023-07-30T01:31:18;99553.50;;;15.69;nan
77360;BME280;66426;51.454;7.266;2023-07-30T01:32:20;99553.13;;;15.62;nan
77360;BME280;66426;51.454;7.266;2023-07-30T01:33:24;99550.19;;;15.54;nan
77360;BME280;66426;51.454;7.266;2023-07-30T01:34:26;99552.41;;;15.60;nan
77360;BME280;66426;51.454;7.266;2023-07-30T01:35:28;99555.13;;;15.71;nan
77360;BME280;66426;51.454;7.266;2023-07-30T01:36:29;99555.97;;;15.61;nan
77360;BME280;66426;51.454;7.266;2023-07-30T01:37:32;99555.59;;;15.54;nan
77360;BME280;66426;51.454;7.266;2023-07-30T01:38:34;99564.25;;;15.59;nan
77360;BME280;66426;51.454;7.266;2023-07-30T01:39:35;99563.00;;;15.63;nan
77360;BME280;66426;51.454;7.266;2023-07-30T01:40:37;99564.97;;;15.61;nan
77360;BME280;66426;51.454;7.266;2023-07-30T01:41:38;99565.34;;;15.57;nan
77360;BME280;66426;51.454;7.266;2023-07-30T01:42:39;99576.09;;;15.47;nan
77360;BME280;66426;51.454;7.266;2023-07-30T01:43:40;99572.63;;;15.45;nan
77360;BME280;66426;51.454;7.266;2023-07-30T01:44:41;99572.25;;;15.49;nan
77360;BME280;66426;51.454;7.266;2023-07-30T01:45:42;99574.13;;;15.38;nan
77360;BME280;66426;51.454;7.266;2023-07-30T01:46:42;99576.22;;;15.45;nan
77360;BME280;66426;51.454;7.266;2023-07-30T01:47:43;99562.91;;;15.53;nan
77360;BME280;66426;51.454;7.266;2023-07-30T01:48:44;99572.78;;;15.43;nan
77360;BME280;66426;51.454;7.266;2023-07-30T01:49:45;99572.25;;;15.49;nan
77360;BME280;66426;51.454;7.266;2023-07-30T01:50:46;99571.78;;;15.56;nan
77360;BME280;66426;51.454;7.266;2023-07-30T01:51:49;99565.34;;;15.57;nan
77360;BME280;66426;51.454;7.266;2023-07-30T01:52:51;99575.34;;;15.56;nan
77360;BME280;66426;51.454;7.266;2023-07-30T01:53:52;99571.16;;;15.52;nan
77360;BME280;66426;51.454;7.266;2023-07-30T01:54:53;99573.13;;;15.61;nan
77360;BME280;66426;51.454;7.266;2023-07-30T01:55:56;99570.78;;;15.57;nan
77360;BME280;66426;51.454;7.266;2023-07-30T01:56:57;99579.31;;;15.41;nan
77360;BME280;66426;51.454;7.266;2023-07-30T01:57:58;99577.56;;;15.40;nan
77360;BME280;66426;51.454;7.266;2023-07-30T01:58:59;99575.34;;;15.45;nan
77360;BME280;66426;51.454;7.266;2023-07-30T02:00:00;99578.91;;;15.34;nan
77360;BME280;66426;51.454;7.266;2023-07-30T02:01:01;99583.63;;;15.43;nan
77360;BME280;66426;51.454;7.266;2023-07-30T02:02:02;99582.00;;;15.52;nan
77360;BME280;66426;51.454;7.266;2023-07-30T02:03:03;99572.88;;;15.42;nan
77360;BME280;66426;51.454;7.266;2023-07-30T02:04:04;99573.63;;;15.32;nan
77360;BME280;66426;51.454;7.266;2023-07-30T02:05:05;99570.06;;;15.43;nan
77360;BME280;66426;51.454;7.266;2023-07-30T02:06:05;99572.03;;;15.41;nan
77360;BME280;66426;51.454;7.266;2023-07-30T02:07:06;99574.63;;;15.43;nan
77360;BME280;66426;51.454;7.266;2023-07-30T02:08:08;99580.41;;;15.27;nan
77360;BME280;66426;51.454;7.266;2023-07-30T02:09:09;99571.41;;;15.38;nan
77360;BME280;66426;51.454;7.266;2023-07-30T02:10:10;99582.75;;;15.31;nan
77360;BME280;66426;51.454;7.266;2023-07-30T02:11:11;99583.25;;;15.37;nan
77360;BME280;66426;51.454;7.266;2023-07-30T02:12:13;99578.69;;;15.26;nan
77360;BME280;66426;51.454;7.266;2023-07-30T02:13:13;99572.00;;;15.30;nan
77360;BME280;66426;51.454;7.266;2023-07-30T02:14:15;99572.13;;;15.40;nan
77360;BME280;66426;51.454;7.266;2023-07-30T02:15:16;99572.38;;;15.37;nan
77360;BME280;66426;51.454;7.266;2023-07-30T02:16:16;99571.16;;;15.41;nan
77360;BME280;66426;51.454;7.266;2023-07-30T02:17:17;99572.28;;;15.38;nan
77360;BME280;66426;51.454;7.266;2023-07-30T02:18:18;99571.16;;;15.41;nan
77360;BME280;66426;51.454;7.266;2023-07-30T02:19:19;99572.13;;;15.28;nan
77360;BME280;66426;51.454;7.266;2023-07-30T02:20:20;99576.34;;;15.32;nan
77360;BME280;66426;51.454;7.266;2023-07-30T02:21:21;99568.56;;;15.28;nan
77360;BME280;66426;51.454;7.266;2023-07-30T02:22:22;99577.81;;;15.25;nan
77360;BME280;66426;51.454;7.266;2023-07-30T02:23:24;99578.78;;;15.24;nan
77360;BME280;66426;51.454;7.266;2023-07-30T02:24:25;99570.66;;;15.24;nan
77360;BME280;66426;51.454;7.266;2023-07-30T02:25:26;99566.00;;;15.38;nan
77360;BME280;66426;51.454;7.266;2023-07-30T02:26:27;99576.84;;;15.38;nan
77360;BME280;66426;51.454;7.266;2023-07-30T02:27:27;99578.66;;;15.37;nan
77360;BME280;66426;51.454;7.266;2023-07-30T02:28:28;99574.97;;;15.16;nan
77360;BME280;66426;51.454;7.266;2023-07-30T02:29:29;99577.69;;;15.27;nan
77360;BME280;66426;51.454;7.266;2023-07-30T02:30:32;99575.81;;;15.27;nan
77360;BME280;66426;51.454;7.266;2023-07-30T02:31:33;99575.44;;;15.09;nan
77360;BME280;66426;51.454;7.266;2023-07-30T02:32:34;99568.78;;;15.25;nan
77360;BME280;66426;51.454;7.266;2023-07-30T02:33:35;99581.16;;;15.18;nan
77360;BME280;66426;51.454;7.266;2023-07-30T02:34:36;99575.22;;;15.24;nan
77360;BME280;66426;51.454;7.266;2023-07-30T02:35:37;99576.06;;;15.24;nan
77360;BME280;66426;51.454;7.266;2023-07-30T02:36:38;99574.34;;;15.35;nan
77360;BME280;66426;51.454;7.266;2023-07-30T02:37:38;99574.34;;;15.35;nan
77360;BME280;66426;51.454;7.266;2023-07-30T02:38:41;99580.03;;;15.31;nan
77360;BME280;66426;51.454;7.266;2023-07-30T02:39:42;99581.38;;;15.37;nan
77360;BME280;66426;51.454;7.266;2023-07-30T02:40:42;99581.78;;;15.32;nan
77360;BME280;66426;51.454;7.266;2023-07-30T02:41:43;99577.22;;;15.33;nan
77360;BME280;66426;51.454;7.266;2023-07-30T02:42:44;99583.38;;;15.35;nan
77360;BME280;66426;51.454;7.266;2023-07-30T02:43:45;99586.81;;;15.26;nan
77360;BME280;66426;51.454;7.266;2023-07-30T02:44:46;99583.47;;;15.22;nan
77360;BME280;66426;51.454;7.266;2023-07-30T02:45:47;99577.44;;;15.30;nan
77360;BME280;66426;51.454;7.266;2023-07-30T02:46:48;99578.44;;;15.18;nan
77360;BME280;66426;51.454;7.266;2023-07-30T02:47:49;99575.44;;;15.09;nan
77360;BME280;66426;51.454;7.266;2023-07-30T02:48:50;99575.31;;;15.11;nan
77360;BME280;66426;51.454;7.266;2023-07-30T02:49:50;99577.53;;;15.17;nan
77360;BME280;66426;51.454;7.266;2023-07-30T02:50:51;99573.50;;;15.23;nan
77360;BME280;66426;51.454;7.266;2023-07-30T02:51:52;99576.06;;;15.24;nan
77360;BME280;66426;51.454;7.266;2023-07-30T02:52:53;99577.31;;;15.20;nan
77360;BME280;66426;51.454;7.266;2023-07-30T02:53:57;99575.72;;;15.18;nan
77360;BME280;66426;51.454;7.266;2023-07-30T02:54:58;99581.50;;;15.24;nan
77360;BME280;66426;51.454;7.266;2023-07-30T02:55:59;99583.00;;;15.28;nan
77360;BME280;66426;51.454;7.266;2023-07-30T02:57:00;99578.91;;;15.34;nan
77360;BME280;66426;51.454;7.266;2023-07-30T02:58:01;99577.44;;;15.30;nan
77360;BME280;66426;51.454;7.266;2023-07-30T02:59:02;99583.34;;;15.24;nan
77360;BME280;66426;51.454;7.266;2023-07-30T03:00:03;99582.50;;;15.23;nan
77360;BME280;66426;51.454;7.266;2023-07-30T03:01:05;99576.81;;;15.15;nan
77360;BME280;66426;51.454;7.266;2023-07-30T03:02:06;99578.53;;;15.16;nan
77360;BME280;66426;51.454;7.266;2023-07-30T03:03:07;99578.53;;;15.27;nan
77360;BME280;66426;51.454;7.266;2023-07-30T03:04:08;99583.97;;;15.27;nan
77360;BME280;66426;51.454;7.266;2023-07-30T03:05:09;99584.44;;;15.10;nan
77360;BME280;66426;51.454;7.266;2023-07-30T03:06:10;99587.50;;;14.94;nan
77360;BME280;66426;51.454;7.266;2023-07-30T03:07:11;99585.28;;;14.99;nan
77360;BME280;66426;51.454;7.266;2023-07-30T03:08:12;99581.22;;;15.05;nan
77360;BME280;66426;51.454;7.266;2023-07-30T03:09:14;99582.81;;;15.07;nan
77360;BME280;66426;51.454;7.266;2023-07-30T03:10:15;99583.00;;;15.28;nan
77360;BME280;66426;51.454;7.266;2023-07-30T03:11:15;99593.50;;;15.33;nan
77360;BME280;66426;51.454;7.266;2023-07-30T03:12:16;99586.56;;;15.18;nan
77360;BME280;66426;51.454;7.266;2023-07-30T03:13:17;99576.81;;;15.26;nan
77360;BME280;66426;51.454;7.266;2023-07-30T03:14:19;99583.00;;;15.28;nan
77360;BME280;66426;51.454;7.266;2023-07-30T03:15:21;99587.06;;;15.23;nan
77360;BME280;66426;51.454;7.266;2023-07-30T03:16:22;99587.19;;;15.21;nan
77360;BME280;66426;51.454;7.266;2023-07-30T03:17:23;99582.47;;;15.12;nan
77360;BME280;66426;51.454;7.266;2023-07-30T03:18:23;99588.13;;;14.98;nan
77360;BME280;66426;51.454;7.266;2023-07-30T03:19:24;99586.66;;;15.05;nan
77360;BME280;66426;51.454;7.266;2023-07-30T03:20:25;99594.50;;;14.85;nan
77360;BME280;66426;51.454;7.266;2023-07-30T03:21:26;99597.94;;;14.87;nan
77360;BME280;66426;51.454;7.266;2023-07-30T03:22:27;99589.47;;;14.92;nan
77360;BME280;66426;51.454;7.266;2023-07-30T03:23:28;99585.31;;;15.10;nan
77360;BME280;66426;51.454;7.266;2023-07-30T03:24:30;99584.06;;;15.15;nan
77360;BME280;66426;51.454;7.266;2023-07-30T03:25:31;99588.50;;;15.04;nan
77360;BME280;66426;51.454;7.266;2023-07-30T03:26:32;99593.44;;;14.99;nan
77360;BME280;66426;51.454;7.266;2023-07-30T03:27:33;99593.31;;;15.01;nan
77360;BME280;66426;51.454;7.266;2023-07-30T03:28:34;99590.97;;;15.07;nan
77360;BME280;66426;51.454;7.266;2023-07-30T03:29:35;99594.06;;;15.14;nan
77360;BME280;66426;51.454;7.266;2023-07-30T03:30:35;99590.75;;;15.10;nan
77360;BME280;66426;51.454;7.266;2023-07-30T03:31:36;99589.69;;;14.78;nan
77360;BME280;66426;51.454;7.266;2023-07-30T03:32:37;99592.53;;;14.87;nan
77360;BME280;66426;51.454;7.266;2023-07-30T03:33:38;99589.25;;;14.95;nan
77360;BME280;66426;51.454;7.266;2023-07-30T03:34:40;99588.84;;;15.00;nan
77360;BME280;66426;51.454;7.266;2023-07-30T03:35:41;99588.34;;;14.95;nan
77360;BME280;66426;51.454;7.266;2023-07-30T03:36:41;99594.66;;;14.95;nan
77360;BME280;66426;51.454;7.266;2023-07-30T03:37:42;99589.97;;;14.97;nan
77360;BME280;66426;51.454;7.266;2023-07-30T03:38:43;99587.25;;;14.97;nan
77360;BME280;66426;51.454;7.266;2023-07-30T03:39:45;99590.06;;;14.84;nan
77360;BME280;66426;51.454;7.266;2023-07-30T03:40:46;99597.53;;;14.70;nan
77360;BME280;66426;51.454;7.266;2023-07-30T03:41:47;99595.31;;;14.63;nan
77360;BME280;66426;51.454;7.266;2023-07-30T03:42:48;99593.34;;;14.65;nan
77360;BME280;66426;51.454;7.266;2023-07-30T03:43:49;99591.13;;;14.71;nan
77360;BME280;66426;51.454;7.266;2023-07-30T03:44:50;99595.47;;;14.73;nan
77360;BME280;66426;51.454;7.266;2023-07-30T03:45:51;99601.50;;;14.77;nan
77360;BME280;66426;51.454;7.266;2023-07-30T03:46:52;99597.66;;;14.68;nan
77360;BME280;66426;51.454;7.266;2023-07-30T03:47:53;99603.16;;;14.55;nan
77360;BME280;66426;51.454;7.266;2023-07-30T03:48:53;99600.75;;;14.51;nan
77360;BME280;66426;51.454;7.266;2023-07-30T03:49:54;99607.59;;;14.56;nan
77360;BME280;66426;51.454;7.266;2023-07-30T03:50:55;99600.63;;;14.52;nan
77360;BME280;66426;51.454;7.266;2023-07-30T03:51:56;99593.69;;;14.61;nan
77360;BME280;66426;51.454;7.266;2023-07-30T03:52:57;99602.19;;;14.67;nan
77360;BME280;66426;51.454;7.266;2023-07-30T03:53:58;99608.78;;;14.76;nan
77360;BME280;66426;51.454;7.266;2023-07-30T03:55:01;99601.38;;;14.78;nan
77360;BME280;66426;51.454;7.266;2023-07-30T03:56:02;99600.63;;;14.76;nan
77360;BME280;66426;51.454;7.266;2023-07-30T03:57:03;99603.81;;;14.70;nan
77360;BME280;66426;51.454;7.266;2023-07-30T03:58:04;99600.88;;;14.73;nan
77360;BME280;66426;51.454;7.266;2023-07-30T03:59:05;99603.97;;;14.80;nan
77360;BME280;66426;51.454;7.266;2023-07-30T04:00:06;99604.88;;;14.92;nan
77360;BME280;66426;51.454;7.266;2023-07-30T04:01:07;99606.84;;;14.89;nan
77360;BME280;66426;51.454;7.266;2023-07-30T04:02:09;99606.66;;;14.69;nan
77360;BME280;66426;51.454;7.266;2023-07-30T04:03:11;99606.81;;;14.78;nan
77360;BME280;66426;51.454;7.266;2023-07-30T04:04:12;99617.34;;;14.59;nan
77360;BME280;66426;51.454;7.266;2023-07-30T04:05:12;99622.91;;;14.69;nan
77360;BME280;66426;51.454;7.266;2023-07-30T04:06:13;99604.72;;;14.82;nan
77360;BME280;66426;51.454;7.266;2023-07-30T04:07:14;99610.03;;;14.83;nan
77360;BME280;66426;51.454;7.266;2023-07-30T04:08:15;99615.56;;;14.82;nan
77360;BME280;66426;51.454;7.266;2023-07-30T04:09:16;99607.69;;;14.55;nan
77360;BME280;66426;51.454;7.266;2023-07-30T04:10:18;99611.41;;;14.54;nan
77360;BME280;66426;51.454;7.266;2023-07-30T04:11:19;99612.66;;;14.61;nan
77360;BME280;66426;51.454;7.266;2023-07-30T04:12:20;99614.09;;;14.78;nan
77360;BME280;66426;51.454;7.266;2023-07-30T04:13:23;99619.09;;;14.71;nan
77360;BME280;66426;51.454;7.266;2023-07-30T04:14:23;99610.97;;;14.71;nan
77360;BME280;66426;51.454;7.266;2023-07-30T04:15:24;99611.25;;;14.79;nan
77360;BME280;66426;51.454;7.266;2023-07-30T04:16:25;99606.84;;;14.89;nan
77360;BME280;66426;51.454;7.266;2023-07-30T04:17:26;99616.44;;;14.82;nan
77360;BME280;66426;51.454;7.266;2023-07-30T04:18:27;99615.31;;;14.85;nan
77360;BME280;66426;51.454;7.266;2023-07-30T04:19:28;99614.47;;;14.84;nan
77360;BME280;66426;51.454;7.266;2023-07-30T04:20:29;99611.09;;;14.70;nan
77360;BME280;66426;51.454;7.266;2023-07-30T04:21:30;99616.91;;;14.76;nan
77360;BME280;66426;51.454;7.266;2023-07-30T04:22:30;99613.09;;;14.79;nan
77360;BME280;66426;51.454;7.266;2023-07-30T04:23:31;99610.31;;;14.67;nan
77360;BME280;66426;51.454;7.266;2023-07-30T04:24:32;99606.16;;;14.75;nan
77360;BME280;66426;51.454;7.266;2023-07-30T04:25:34;99607.78;;;14.77;nan
77360;BME280;66426;51.454;7.266;2023-07-30T04:26:35;99611.72;;;14.73;nan
77360;BME280;66426;51.454;7.266;2023-07-30T04:27:36;99615.69;;;14.80;nan
77360;BME280;66426;51.454;7.266;2023-07-30T04:28:37;99613.59;;;14.73;nan
77360;BME280;66426;51.454;7.266;2023-07-30T04:29:38;99614.09;;;14.78;nan
77360;BME280;66426;51.454;7.266;2023-07-30T04:30:39;99618.69;;;14.64;nan
77360;BME280;66426;51.454;7.266;2023-07-30T04:31:40;99609.63;;;14.77;nan
77360;BME280;66426;51.454;7.266;2023-07-30T04:32:41;99617.38;;;14.70;nan
77360;BME280;66426;51.454;7.266;2023-07-30T04:33:41;99616.81;;;14.54;nan
77360;BME280;66426;51.454;7.266;2023-07-30T04:34:42;99622.91;;;14.69;nan
77360;BME280;66426;51.454;7.266;2023-07-30T04:35:43;99609.47;;;14.67;nan
77360;BME280;66426;51.454;7.266;2023-07-30T04:36:44;99615.13;;;14.64;nan
77360;BME280;66426;51.454;7.266;2023-07-30T04:37:45;99612.69;;;14.72;nan
77360;BME280;66426;51.454;7.266;2023-07-30T04:38:46;99618.88;;;14.74;nan
77360;BME280;66426;51.454;7.266;2023-07-30T04:39:47;99608.78;;;14.76;nan
77360;BME280;66426;51.454;7.266;2023-07-30T04:40:49;99611.38;;;14.78;nan
77360;BME280;66426;51.454;7.266;2023-07-30T04:41:50;99611.47;;;14.76;nan
77360;BME280;66426;51.454;7.266;2023-07-30T04:42:51;99619.63;;;14.76;nan
77360;BME280;66426;51.454;7.266;2023-07-30T04:43:52;99614.66;;;14.70;nan
77360;BME280;66426;51.454;7.266;2023-07-30T04:44:53;99611.47;;;14.76;nan
77360;BME280;66426;51.454;7.266;2023-07-30T04:45:54;99615.22;;;14.86;nan
77360;BME280;66426;51.454;7.266;2023-07-30T04:46:54;99615.81;;;14.79;nan
77360;BME280;66426;51.454;7.266;2023-07-30T04:47:55;99615.47;;;14.83;nan
77360;BME280;66426;51.454;7.266;2023-07-30T04:48:56;99614.94;;;14.78;nan
77360;BME280;66426;51.454;7.266;2023-07-30T04:49:57;99615.91;;;14.77;nan
77360;BME280;66426;51.454;7.266;2023-07-30T04:50:58;99616.81;;;14.78;nan
77360;BME280;66426;51.454;7.266;2023-07-30T04:51:59;99620.13;;;14.81;nan
77360;BME280;66426;51.454;7.266;2023-07-30T04:53:00;99616.06;;;14.76;nan
77360;BME280;66426;51.454;7.266;2023-07-30T04:54:01;99620.56;;;14.64;nan
77360;BME280;66426;51.454;7.266;2023-07-30T04:55:02;99623.84;;;14.80;nan
77360;BME280;66426;51.454;7.266;2023-07-30T04:56:04;99622.16;;;14.91;nan
77360;BME280;66426;51.454;7.266;2023-07-30T04:57:05;99623.47;;;14.85;nan
77360;BME280;66426;51.454;7.266;2023-07-30T04:58:06;99621.16;;;14.92;nan
77360;BME280;66426;51.454;7.266;2023-07-30T04:59:07;99624.63;;;14.94;nan
77360;BME280;66426;51.454;7.266;2023-07-30T05:00:08;99621.25;;;14.90;nan
77360;BME280;66426;51.454;7.266;2023-07-30T05:01:09;99623.69;;;14.82;nan
77360;BME280;66426;51.454;7.266;2023-07-30T05:02:10;99626.06;;;14.86;nan
77360;BME280;66426;51.454;7.266;2023-07-30T05:03:11;99616.06;;;14.87;nan
77360;BME280;66426;51.454;7.266;2023-07-30T05:04:12;99626.69;;;14.90;nan
77360;BME280;66426;51.454;7.266;2023-07-30T05:05:13;99625.47;;;14.94;nan
77360;BME280;66426;51.454;7.266;2023-07-30T05:06:14;99623.41;;;14.98;nan
77360;BME280;66426;51.454;7.266;2023-07-30T05:07:15;99624.25;;;14.98;nan
77360;BME280;66426;51.454;7.266;2023-07-30T05:08:16;99623.25;;;14.99;nan
77360;BME280;66426;51.454;7.266;2023-07-30T05:09:17;99623.25;;;14.99;nan
77360;BME280;66426;51.454;7.266;2023-07-30T05:10:17;99626.72;;;15.01;nan
77360;BME280;66426;51.454;7.266;2023-07-30T05:11:20;99622.66;;;14.96;nan
77360;BME280;66426;51.454;7.266;2023-07-30T05:12:21;99628.34;;;15.04;nan
77360;BME280;66426;51.454;7.266;2023-07-30T05:13:21;99626.47;;;15.04;nan
77360;BME280;66426;51.454;7.266;2023-07-30T05:14:22;99625.63;;;15.04;nan
77360;BME280;66426;51.454;7.266;2023-07-30T05:15:23;99629.94;;;15.06;nan
77360;BME280;66426;51.454;7.266;2023-07-30T05:16:24;99629.69;;;14.98;nan
77360;BME280;66426;51.454;7.266;2023-07-30T05:17:25;99631.56;;;15.09;nan
77360;BME280;66426;51.454;7.266;2023-07-30T05:18:26;99627.22;;;14.95;nan
77360;BME280;66426;51.454;7.266;2023-07-30T05:19:27;99630.56;;;15.10;nan
77360;BME280;66426;51.454;7.266;2023-07-30T05:20:28;99628.44;;;15.02;nan
77360;BME280;66426;51.454;7.266;2023-07-30T05:21:29;99631.13;;;14.91;nan
77360;BME280;66426;51.454;7.266;2023-07-30T05:22:30;99629.44;;;15.01;nan
77360;BME280;66426;51.454;7.266;2023-07-30T05:23:31;99634.88;;;15.01;nan
77360;BME280;66426;51.454;7.266;2023-07-30T05:24:32;99627.75;;;15.12;nan
77360;BME280;66426;51.454;7.266;2023-07-30T05:25:32;99624.28;;;15.09;nan
77360;BME280;66426;51.454;7.266;2023-07-30T05:26:35;99625.66;;;15.15;nan
77360;BME280;66426;51.454;7.266;2023-07-30T05:27:36;99624.41;;;15.19;nan
77360;BME280;66426;51.454;7.266;2023-07-30T05:28:37;99626.03;;;15.22;nan
77360;BME280;66426;51.454;7.266;2023-07-30T05:29:37;99624.66;;;15.16;nan
77360;BME280;66426;51.454;7.266;2023-07-30T05:30:38;99619.59;;;15.12;nan
77360;BME280;66426;51.454;7.266;2023-07-30T05:31:39;99622.31;;;15.00;nan
77360;BME280;66426;51.454;7.266;2023-07-30T05:32:40;99616.63;;;15.03;nan